sensor_id;sensor_type;location;lat;lon;timestamp;temperature;humidity
14985;DHT22;7588;62.368;25.902;2023-05-16T00:01:15;8.50;99.90
14985;DHT22;7588;62.368;25.902;2023-05-16T00:03:41;8.60;99.90
14985;DHT22;7588;62.368;25.902;2023-05-16T00:06:08;8.60;99.90
14985;DHT22;7588;62.368;25.902;2023-05-16T00:08:34;8.70;99.90
14985;DHT22;7588;62.368;25.902;2023-05-16T00:11:00;8.70;99.90
14985;DHT22;7588;62.368;25.902;2023-05-16T00:13:26;8.80;99.90
14985;DHT22;7588;62.368;25.902;2023-05-16T00:15:52;8.80;99.90
14985;DHT22;7588;62.368;25.902;2023-05-16T00:18:21;8.90;99.90
14985;DHT22;7588;62.368;25.902;2023-05-16T00:20:48;8.80;99.90
14985;DHT22;7588;62.368;25.902;2023-05-16T00:23:14;8.80;99.90
14985;DHT22;7588;62.368;25.902;2023-05-16T00:25:40;8.80;99.90
14985;DHT22;7588;62.368;25.902;2023-05-16T00:28:06;8.80;99.90
14985;DHT22;7588;62.368;25.902;2023-05-16T00:30:33;8.80;99.90
14985;DHT22;7588;62.368;25.902;2023-05-16T00:32:59;8.80;99.90
14985;DHT22;7588;62.368;25.902;2023-05-16T00:35:25;8.80;99.90
14985;DHT22;7588;62.368;25.902;2023-05-16T00:37:51;8.80;99.90
14985;DHT22;7588;62.368;25.902;2023-05-16T00:40:16;8.80;99.90
14985;DHT22;7588;62.368;25.902;2023-05-16T00:42:42;8.80;99.90
14985;DHT22;7588;62.368;25.902;2023-05-16T00:45:08;8.90;99.90
14985;DHT22;7588;62.368;25.902;2023-05-16T00:47:35;8.90;99.90
14985;DHT22;7588;62.368;25.902;2023-05-16T00:50:01;8.90;99.90
14985;DHT22;7588;62.368;25.902;2023-05-16T00:52:27;8.90;99.90
14985;DHT22;7588;62.368;25.902;2023-05-16T00:54:53;8.90;99.90
14985;DHT22;7588;62.368;25.902;2023-05-16T00:57:19;8.90;99.90
14985;DHT22;7588;62.368;25.902;2023-05-16T00:59:45;9.00;99.90
14985;DHT22;7588;62.368;25.902;2023-05-16T01:02:12;9.00;99.90
14985;DHT22;7588;62.368;25.902;2023-05-16T01:04:38;9.00;99.90
14985;DHT22;7588;62.368;25.902;2023-05-16T01:07:05;9.10;99.90
14985;DHT22;7588;62.368;25.902;2023-05-16T01:09:31;9.10;99.90
14985;DHT22;7588;62.368;25.902;2023-05-16T01:14:31;9.10;99.90
14985;DHT22;7588;62.368;25.902;2023-05-16T01:20:20;9.20;99.90
14985;DHT22;7588;62.368;25.902;2023-05-16T01:28:04;9.20;99.90
14985;DHT22;7588;62.368;25.902;2023-05-16T01:30:38;9.20;99.90
14985;DHT22;7588;62.368;25.902;2023-05-16T01:33:05;9.20;99.90
14985;DHT22;7588;62.368;25.902;2023-05-16T01:35:31;9.20;99.90
14985;DHT22;7588;62.368;25.902;2023-05-16T01:40:41;9.30;99.90
14985;DHT22;7588;62.368;25.902;2023-05-16T01:43:12;9.30;99.90
14985;DHT22;7588;62.368;25.902;2023-05-16T01:45:43;9.30;99.90
14985;DHT22;7588;62.368;25.902;2023-05-16T01:48:17;9.30;99.90
14985;DHT22;7588;62.368;25.902;2023-05-16T01:50:48;9.30;99.90
14985;DHT22;7588;62.368;25.902;2023-05-16T01:53:21;9.30;99.90
14985;DHT22;7588;62.368;25.902;2023-05-16T01:55:50;9.30;99.90
14985;DHT22;7588;62.368;25.902;2023-05-16T01:58:19;9.40;99.90
14985;DHT22;7588;62.368;25.902;2023-05-16T02:00:45;9.40;99.90
14985;DHT22;7588;62.368;25.902;2023-05-16T02:03:11;9.40;99.90
14985;DHT22;7588;62.368;25.902;2023-05-16T02:05:37;9.40;99.90
14985;DHT22;7588;62.368;25.902;2023-05-16T02:08:03;9.40;99.90
14985;DHT22;7588;62.368;25.902;2023-05-16T02:10:29;9.50;99.90
14985;DHT22;7588;62.368;25.902;2023-05-16T02:12:55;9.50;99.90
14985;DHT22;7588;62.368;25.902;2023-05-16T02:15:21;9.50;99.90
14985;DHT22;7588;62.368;25.902;2023-05-16T02:17:47;9.50;99.90
14985;DHT22;7588;62.368;25.902;2023-05-16T02:20:12;9.50;99.90
14985;DHT22;7588;62.368;25.902;2023-05-16T02:22:38;9.60;99.90
14985;DHT22;7588;62.368;25.902;2023-05-16T02:25:05;9.60;99.90
14985;DHT22;7588;62.368;25.902;2023-05-16T02:27:31;9.60;99.90
14985;DHT22;7588;62.368;25.902;2023-05-16T02:29:57;9.70;99.90
14985;DHT22;7588;62.368;25.902;2023-05-16T02:32:23;9.70;99.90
14985;DHT22;7588;62.368;25.902;2023-05-16T02:34:50;9.70;99.90
14985;DHT22;7588;62.368;25.902;2023-05-16T02:37:16;9.80;99.90
14985;DHT22;7588;62.368;25.902;2023-05-16T02:39:41;9.90;99.90
14985;DHT22;7588;62.368;25.902;2023-05-16T02:42:07;10.00;99.90
14985;DHT22;7588;62.368;25.902;2023-05-16T02:44:33;10.00;99.90
14985;DHT22;7588;62.368;25.902;2023-05-16T02:46:59;10.00;99.90
14985;DHT22;7588;62.368;25.902;2023-05-16T02:49:24;10.00;99.90
14985;DHT22;7588;62.368;25.902;2023-05-16T02:51:50;10.00;99.90
14985;DHT22;7588;62.368;25.902;2023-05-16T02:54:16;10.10;99.90
14985;DHT22;7588;62.368;25.902;2023-05-16T02:56:42;10.10;99.90
14985;DHT22;7588;62.368;25.902;2023-05-16T02:59:09;10.20;99.90
14985;DHT22;7588;62.368;25.902;2023-05-16T03:01:35;10.30;99.90
14985;DHT22;7588;62.368;25.902;2023-05-16T03:04:01;10.20;99.90
14985;DHT22;7588;62.368;25.902;2023-05-16T03:06:26;10.20;99.90
14985;DHT22;7588;62.368;25.902;2023-05-16T03:08:52;10.20;99.90
14985;DHT22;7588;62.368;25.902;2023-05-16T03:11:18;10.20;99.90
14985;DHT22;7588;62.368;25.902;2023-05-16T03:13:46;10.20;99.90
14985;DHT22;7588;62.368;25.902;2023-05-16T03:16:12;10.30;99.90
14985;DHT22;7588;62.368;25.902;2023-05-16T03:18:38;10.30;99.90
14985;DHT22;7588;62.368;25.902;2023-05-16T03:21:04;10.20;99.90
14985;DHT22;7588;62.368;25.902;2023-05-16T03:23:29;10.30;99.90
14985;DHT22;7588;62.368;25.902;2023-05-16T03:25:55;10.30;99.90
14985;DHT22;7588;62.368;25.902;2023-05-16T03:28:21;10.40;99.90
14985;DHT22;7588;62.368;25.902;2023-05-16T03:30:47;10.50;99.90
14985;DHT22;7588;62.368;25.902;2023-05-16T03:33:12;10.50;99.90
14985;DHT22;7588;62.368;25.902;2023-05-16T03:35:38;10.60;99.90
14985;DHT22;7588;62.368;25.902;2023-05-16T03:38:04;10.70;99.90
14985;DHT22;7588;62.368;25.902;2023-05-16T03:40:30;10.70;99.90
14985;DHT22;7588;62.368;25.902;2023-05-16T03:42:56;10.80;99.90
14985;DHT22;7588;62.368;25.902;2023-05-16T03:45:22;10.90;99.90
14985;DHT22;7588;62.368;25.902;2023-05-16T03:47:48;11.00;99.90
14985;DHT22;7588;62.368;25.902;2023-05-16T03:50:14;11.10;99.90
14985;DHT22;7588;62.368;25.902;2023-05-16T03:52:40;11.20;99.90
14985;DHT22;7588;62.368;25.902;2023-05-16T03:55:06;11.40;99.90
14985;DHT22;7588;62.368;25.902;2023-05-16T03:57:33;11.40;99.90
14985;DHT22;7588;62.368;25.902;2023-05-16T03:59:59;11.40;99.90
14985;DHT22;7588;62.368;25.902;2023-05-16T04:02:25;11.50;99.90
14985;DHT22;7588;62.368;25.902;2023-05-16T04:04:51;11.60;99.90
14985;DHT22;7588;62.368;25.902;2023-05-16T04:07:16;11.70;99.90
14985;DHT22;7588;62.368;25.902;2023-05-16T04:09:42;11.80;99.90
14985;DHT22;7588;62.368;25.902;2023-05-16T04:12:08;12.00;99.90
14985;DHT22;7588;62.368;25.902;2023-05-16T04:14:34;12.40;99.90
14985;DHT22;7588;62.368;25.902;2023-05-16T04:17:00;12.80;99.90
14985;DHT22;7588;62.368;25.902;2023-05-16T04:19:25;13.20;99.90
14985;DHT22;7588;62.368;25.902;2023-05-16T04:21:51;13.50;99.90
14985;DHT22;7588;62.368;25.902;2023-05-16T04:24:17;13.70;99.90
14985;DHT22;7588;62.368;25.902;2023-05-16T04:26:43;13.90;99.90
14985;DHT22;7588;62.368;25.902;2023-05-16T04:29:09;14.00;99.90
14985;DHT22;7588;62.368;25.902;2023-05-16T04:31:36;14.20;99.90
14985;DHT22;7588;62.368;25.902;2023-05-16T04:34:02;14.20;99.90
14985;DHT22;7588;62.368;25.902;2023-05-16T04:36:28;14.30;99.90
14985;DHT22;7588;62.368;25.902;2023-05-16T04:38:57;14.40;99.90
14985;DHT22;7588;62.368;25.902;2023-05-16T04:41:23;14.50;99.90
14985;DHT22;7588;62.368;25.902;2023-05-16T04:43:49;14.50;99.90
14985;DHT22;7588;62.368;25.902;2023-05-16T04:46:16;14.70;99.90
14985;DHT22;7588;62.368;25.902;2023-05-16T04:48:42;15.10;99.90
14985;DHT22;7588;62.368;25.902;2023-05-16T04:51:07;15.40;99.90
14985;DHT22;7588;62.368;25.902;2023-05-16T04:53:33;15.80;99.90
14985;DHT22;7588;62.368;25.902;2023-05-16T04:55:59;16.20;99.90
14985;DHT22;7588;62.368;25.902;2023-05-16T04:58:25;16.40;99.90
14985;DHT22;7588;62.368;25.902;2023-05-16T05:00:51;16.60;99.90
14985;DHT22;7588;62.368;25.902;2023-05-16T05:03:17;17.00;99.90
14985;DHT22;7588;62.368;25.902;2023-05-16T05:05:42;17.50;99.90
14985;DHT22;7588;62.368;25.902;2023-05-16T05:08:08;18.30;99.80
14985;DHT22;7588;62.368;25.902;2023-05-16T05:10:34;19.10;97.90
14985;DHT22;7588;62.368;25.902;2023-05-16T05:13:00;19.70;95.00
14985;DHT22;7588;62.368;25.902;2023-05-16T05:15:26;20.00;93.80
14985;DHT22;7588;62.368;25.902;2023-05-16T05:17:52;20.40;92.40
14985;DHT22;7588;62.368;25.902;2023-05-16T05:20:18;20.50;91.50
14985;DHT22;7588;62.368;25.902;2023-05-16T05:22:43;20.30;91.30
14985;DHT22;7588;62.368;25.902;2023-05-16T05:25:09;19.90;92.20
14985;DHT22;7588;62.368;25.902;2023-05-16T05:27:35;20.00;91.40
14985;DHT22;7588;62.368;25.902;2023-05-16T05:30:02;20.30;91.20
14985;DHT22;7588;62.368;25.902;2023-05-16T05:32:28;20.10;90.70
14985;DHT22;7588;62.368;25.902;2023-05-16T05:34:53;20.10;91.50
14985;DHT22;7588;62.368;25.902;2023-05-16T05:37:19;20.10;90.90
14985;DHT22;7588;62.368;25.902;2023-05-16T05:39:45;20.00;88.90
14985;DHT22;7588;62.368;25.902;2023-05-16T05:42:11;19.80;90.40
14985;DHT22;7588;62.368;25.902;2023-05-16T05:44:37;19.90;90.60
14985;DHT22;7588;62.368;25.902;2023-05-16T05:47:06;20.10;90.80
14985;DHT22;7588;62.368;25.902;2023-05-16T05:49:32;19.90;89.40
14985;DHT22;7588;62.368;25.902;2023-05-16T05:51:58;19.70;89.40
14985;DHT22;7588;62.368;25.902;2023-05-16T05:54:24;19.70;89.10
14985;DHT22;7588;62.368;25.902;2023-05-16T05:56:49;20.00;87.20
14985;DHT22;7588;62.368;25.902;2023-05-16T05:59:15;20.50;84.70
14985;DHT22;7588;62.368;25.902;2023-05-16T06:01:41;20.70;86.20
14985;DHT22;7588;62.368;25.902;2023-05-16T06:04:08;20.50;87.10
14985;DHT22;7588;62.368;25.902;2023-05-16T06:06:34;20.10;84.30
14985;DHT22;7588;62.368;25.902;2023-05-16T06:09:00;19.80;87.30
14985;DHT22;7588;62.368;25.902;2023-05-16T06:11:25;19.70;88.20
14985;DHT22;7588;62.368;25.902;2023-05-16T06:13:51;20.20;88.70
14985;DHT22;7588;62.368;25.902;2023-05-16T06:16:17;20.60;88.50
14985;DHT22;7588;62.368;25.902;2023-05-16T06:18:43;20.70;88.40
14985;DHT22;7588;62.368;25.902;2023-05-16T06:21:09;21.20;90.40
14985;DHT22;7588;62.368;25.902;2023-05-16T06:23:35;21.80;87.00
14985;DHT22;7588;62.368;25.902;2023-05-16T06:26:03;22.50;81.30
14985;DHT22;7588;62.368;25.902;2023-05-16T06:28:29;23.00;79.90
14985;DHT22;7588;62.368;25.902;2023-05-16T06:30:56;22.90;78.10
14985;DHT22;7588;62.368;25.902;2023-05-16T06:33:22;22.80;78.00
14985;DHT22;7588;62.368;25.902;2023-05-16T06:35:47;22.80;77.10
14985;DHT22;7588;62.368;25.902;2023-05-16T06:38:17;23.00;76.80
14985;DHT22;7588;62.368;25.902;2023-05-16T06:40:43;23.10;76.00
14985;DHT22;7588;62.368;25.902;2023-05-16T06:43:10;23.10;74.80
14985;DHT22;7588;62.368;25.902;2023-05-16T06:45:36;23.10;73.10
14985;DHT22;7588;62.368;25.902;2023-05-16T06:48:03;23.20;71.90
14985;DHT22;7588;62.368;25.902;2023-05-16T06:50:28;23.20;71.30
14985;DHT22;7588;62.368;25.902;2023-05-16T06:52:54;23.10;73.80
14985;DHT22;7588;62.368;25.902;2023-05-16T06:55:20;23.20;72.80
14985;DHT22;7588;62.368;25.902;2023-05-16T06:57:45;23.30;77.00
14985;DHT22;7588;62.368;25.902;2023-05-16T07:00:12;23.70;70.20
14985;DHT22;7588;62.368;25.902;2023-05-16T07:02:38;23.60;69.80
14985;DHT22;7588;62.368;25.902;2023-05-16T07:05:05;23.70;68.90
14985;DHT22;7588;62.368;25.902;2023-05-16T07:07:31;23.90;70.50
14985;DHT22;7588;62.368;25.902;2023-05-16T07:09:56;24.20;68.70
14985;DHT22;7588;62.368;25.902;2023-05-16T07:12:22;24.30;67.10
14985;DHT22;7588;62.368;25.902;2023-05-16T07:14:48;24.40;67.90
14985;DHT22;7588;62.368;25.902;2023-05-16T07:17:14;24.20;70.50
14985;DHT22;7588;62.368;25.902;2023-05-16T07:19:40;24.20;69.30
14985;DHT22;7588;62.368;25.902;2023-05-16T07:22:05;24.40;65.20
14985;DHT22;7588;62.368;25.902;2023-05-16T07:24:31;24.30;67.20
14985;DHT22;7588;62.368;25.902;2023-05-16T07:26:56;24.50;68.20
14985;DHT22;7588;62.368;25.902;2023-05-16T07:29:22;25.10;63.90
14985;DHT22;7588;62.368;25.902;2023-05-16T07:31:48;24.60;65.40
14985;DHT22;7588;62.368;25.902;2023-05-16T07:34:13;24.00;65.80
14985;DHT22;7588;62.368;25.902;2023-05-16T07:36:39;23.30;67.50
14985;DHT22;7588;62.368;25.902;2023-05-16T07:39:05;23.40;67.60
14985;DHT22;7588;62.368;25.902;2023-05-16T07:41:31;23.70;67.90
14985;DHT22;7588;62.368;25.902;2023-05-16T07:43:57;24.20;64.40
14985;DHT22;7588;62.368;25.902;2023-05-16T07:46:23;24.10;64.20
14985;DHT22;7588;62.368;25.902;2023-05-16T07:48:49;24.30;64.50
14985;DHT22;7588;62.368;25.902;2023-05-16T07:51:14;24.40;64.20
14985;DHT22;7588;62.368;25.902;2023-05-16T07:53:40;24.20;64.70
14985;DHT22;7588;62.368;25.902;2023-05-16T07:56:07;23.60;66.90
14985;DHT22;7588;62.368;25.902;2023-05-16T07:58:33;23.60;66.50
14985;DHT22;7588;62.368;25.902;2023-05-16T08:00:59;23.80;66.60
14985;DHT22;7588;62.368;25.902;2023-05-16T08:03:25;23.90;66.40
14985;DHT22;7588;62.368;25.902;2023-05-16T08:05:50;24.30;63.50
14985;DHT22;7588;62.368;25.902;2023-05-16T08:08:16;24.50;62.10
14985;DHT22;7588;62.368;25.902;2023-05-16T08:10:42;24.40;60.60
14985;DHT22;7588;62.368;25.902;2023-05-16T08:13:08;23.70;61.60
14985;DHT22;7588;62.368;25.902;2023-05-16T08:15:34;23.60;65.40
14985;DHT22;7588;62.368;25.902;2023-05-16T08:18:00;23.80;62.90
14985;DHT22;7588;62.368;25.902;2023-05-16T08:20:26;24.30;63.40
14985;DHT22;7588;62.368;25.902;2023-05-16T08:22:52;25.00;67.00
14985;DHT22;7588;62.368;25.902;2023-05-16T08:25:18;25.40;58.50
14985;DHT22;7588;62.368;25.902;2023-05-16T08:27:45;25.60;57.40
14985;DHT22;7588;62.368;25.902;2023-05-16T08:30:11;25.90;58.70
14985;DHT22;7588;62.368;25.902;2023-05-16T08:32:37;26.20;59.70
14985;DHT22;7588;62.368;25.902;2023-05-16T08:35:03;26.20;61.20
14985;DHT22;7588;62.368;25.902;2023-05-16T08:37:29;26.30;58.50
14985;DHT22;7588;62.368;25.902;2023-05-16T08:39:55;25.50;55.00
14985;DHT22;7588;62.368;25.902;2023-05-16T08:42:21;25.40;59.50
14985;DHT22;7588;62.368;25.902;2023-05-16T08:44:47;25.30;57.60
14985;DHT22;7588;62.368;25.902;2023-05-16T08:47:17;25.40;57.60
14985;DHT22;7588;62.368;25.902;2023-05-16T08:49:46;25.40;58.30
14985;DHT22;7588;62.368;25.902;2023-05-16T08:52:12;25.40;56.10
14985;DHT22;7588;62.368;25.902;2023-05-16T08:54:40;25.20;56.60
14985;DHT22;7588;62.368;25.902;2023-05-16T08:57:05;25.00;55.10
14985;DHT22;7588;62.368;25.902;2023-05-16T08:59:34;24.70;57.60
14985;DHT22;7588;62.368;25.902;2023-05-16T09:01:59;24.70;55.80
14985;DHT22;7588;62.368;25.902;2023-05-16T09:04:25;24.70;59.10
14985;DHT22;7588;62.368;25.902;2023-05-16T09:06:52;24.80;54.40
14985;DHT22;7588;62.368;25.902;2023-05-16T09:09:17;24.60;54.70
14985;DHT22;7588;62.368;25.902;2023-05-16T09:11:44;24.70;55.80
14985;DHT22;7588;62.368;25.902;2023-05-16T09:14:10;24.60;56.20
14985;DHT22;7588;62.368;25.902;2023-05-16T09:16:35;24.40;55.00
14985;DHT22;7588;62.368;25.902;2023-05-16T09:19:01;24.40;56.80
14985;DHT22;7588;62.368;25.902;2023-05-16T09:21:33;24.20;56.40
14985;DHT22;7588;62.368;25.902;2023-05-16T09:24:03;24.10;52.90
14985;DHT22;7588;62.368;25.902;2023-05-16T09:26:29;23.80;53.80
14985;DHT22;7588;62.368;25.902;2023-05-16T09:28:56;23.70;56.90
14985;DHT22;7588;62.368;25.902;2023-05-16T09:31:23;23.70;54.30
14985;DHT22;7588;62.368;25.902;2023-05-16T09:34:00;23.50;53.80
14985;DHT22;7588;62.368;25.902;2023-05-16T09:36:25;23.10;53.90
14985;DHT22;7588;62.368;25.902;2023-05-16T09:38:52;23.10;56.70
14985;DHT22;7588;62.368;25.902;2023-05-16T09:41:18;23.00;55.30
14985;DHT22;7588;62.368;25.902;2023-05-16T09:43:46;22.80;56.00
14985;DHT22;7588;62.368;25.902;2023-05-16T09:46:12;22.70;56.90
14985;DHT22;7588;62.368;25.902;2023-05-16T09:48:50;22.60;55.40
14985;DHT22;7588;62.368;25.902;2023-05-16T09:51:21;22.50;56.10
14985;DHT22;7588;62.368;25.902;2023-05-16T09:53:47;22.50;56.50
14985;DHT22;7588;62.368;25.902;2023-05-16T09:56:14;22.50;57.30
14985;DHT22;7588;62.368;25.902;2023-05-16T09:58:42;22.40;56.40
14985;DHT22;7588;62.368;25.902;2023-05-16T10:01:09;22.40;56.30
14985;DHT22;7588;62.368;25.902;2023-05-16T10:03:37;22.30;56.80
14985;DHT22;7588;62.368;25.902;2023-05-16T10:06:05;22.20;57.40
14985;DHT22;7588;62.368;25.902;2023-05-16T10:08:32;22.00;56.50
14985;DHT22;7588;62.368;25.902;2023-05-16T10:11:01;21.70;58.40
14985;DHT22;7588;62.368;25.902;2023-05-16T10:13:29;21.70;58.80
14985;DHT22;7588;62.368;25.902;2023-05-16T10:15:57;21.70;58.50
14985;DHT22;7588;62.368;25.902;2023-05-16T10:18:31;21.70;58.10
14985;DHT22;7588;62.368;25.902;2023-05-16T10:21:04;21.80;59.00
14985;DHT22;7588;62.368;25.902;2023-05-16T10:23:32;21.70;59.60
14985;DHT22;7588;62.368;25.902;2023-05-16T10:26:00;21.50;58.90
14985;DHT22;7588;62.368;25.902;2023-05-16T10:28:27;21.50;59.10
14985;DHT22;7588;62.368;25.902;2023-05-16T10:30:54;21.40;59.50
14985;DHT22;7588;62.368;25.902;2023-05-16T10:33:20;21.50;61.60
14985;DHT22;7588;62.368;25.902;2023-05-16T10:35:46;21.60;61.40
14985;DHT22;7588;62.368;25.902;2023-05-16T10:38:16;21.60;60.80
14985;DHT22;7588;62.368;25.902;2023-05-16T10:40:42;21.70;61.20
14985;DHT22;7588;62.368;25.902;2023-05-16T10:43:09;21.90;61.40
14985;DHT22;7588;62.368;25.902;2023-05-16T10:45:41;22.10;62.50
14985;DHT22;7588;62.368;25.902;2023-05-16T10:48:07;22.30;59.80
14985;DHT22;7588;62.368;25.902;2023-05-16T10:50:42;22.40;59.60
14985;DHT22;7588;62.368;25.902;2023-05-16T11:01:26;22.00;60.70
14985;DHT22;7588;62.368;25.902;2023-05-16T11:11:46;22.60;65.10
14985;DHT22;7588;62.368;25.902;2023-05-16T11:16:58;22.90;63.60
14985;DHT22;7588;62.368;25.902;2023-05-16T11:19:43;22.70;61.40
14985;DHT22;7588;62.368;25.902;2023-05-16T11:27:28;21.30;62.70
14985;DHT22;7588;62.368;25.902;2023-05-16T11:32:29;21.00;66.80
14985;DHT22;7588;62.368;25.902;2023-05-16T11:34:57;20.90;65.10
14985;DHT22;7588;62.368;25.902;2023-05-16T11:37:22;20.70;66.90
14985;DHT22;7588;62.368;25.902;2023-05-16T11:39:48;20.50;67.60
14985;DHT22;7588;62.368;25.902;2023-05-16T11:42:14;20.40;67.80
14985;DHT22;7588;62.368;25.902;2023-05-16T11:44:40;20.40;71.20
14985;DHT22;7588;62.368;25.902;2023-05-16T11:47:06;20.20;70.40
14985;DHT22;7588;62.368;25.902;2023-05-16T11:49:32;20.00;70.10
14985;DHT22;7588;62.368;25.902;2023-05-16T11:52:01;19.90;71.20
14985;DHT22;7588;62.368;25.902;2023-05-16T11:54:27;19.80;69.20
14985;DHT22;7588;62.368;25.902;2023-05-16T11:56:53;19.70;70.80
14985;DHT22;7588;62.368;25.902;2023-05-16T11:59:19;19.70;71.70
14985;DHT22;7588;62.368;25.902;2023-05-16T12:01:45;19.60;69.50
14985;DHT22;7588;62.368;25.902;2023-05-16T12:04:15;19.50;69.00
14985;DHT22;7588;62.368;25.902;2023-05-16T12:06:42;19.50;70.20
14985;DHT22;7588;62.368;25.902;2023-05-16T12:09:13;19.60;71.80
14985;DHT22;7588;62.368;25.902;2023-05-16T12:11:40;19.70;72.10
14985;DHT22;7588;62.368;25.902;2023-05-16T12:14:08;19.80;71.40
14985;DHT22;7588;62.368;25.902;2023-05-16T12:16:35;19.90;72.30
14985;DHT22;7588;62.368;25.902;2023-05-16T12:19:05;20.00;71.30
14985;DHT22;7588;62.368;25.902;2023-05-16T12:21:34;20.10;72.90
14985;DHT22;7588;62.368;25.902;2023-05-16T12:24:00;20.20;71.60
14985;DHT22;7588;62.368;25.902;2023-05-16T12:26:30;20.20;69.70
14985;DHT22;7588;62.368;25.902;2023-05-16T12:28:58;20.30;69.90
14985;DHT22;7588;62.368;25.902;2023-05-16T12:31:27;20.20;68.20
14985;DHT22;7588;62.368;25.902;2023-05-16T12:33:55;20.10;69.90
14985;DHT22;7588;62.368;25.902;2023-05-16T12:36:21;20.10;70.30
14985;DHT22;7588;62.368;25.902;2023-05-16T12:38:48;20.10;70.90
14985;DHT22;7588;62.368;25.902;2023-05-16T12:41:21;20.00;69.00
14985;DHT22;7588;62.368;25.902;2023-05-16T12:43:48;19.90;71.80
14985;DHT22;7588;62.368;25.902;2023-05-16T12:46:14;19.90;70.90
14985;DHT22;7588;62.368;25.902;2023-05-16T12:48:41;19.90;73.50
14985;DHT22;7588;62.368;25.902;2023-05-16T12:51:13;19.70;72.00
14985;DHT22;7588;62.368;25.902;2023-05-16T12:53:48;19.50;72.20
14985;DHT22;7588;62.368;25.902;2023-05-16T12:56:14;19.50;71.60
14985;DHT22;7588;62.368;25.902;2023-05-16T12:58:41;19.40;71.70
14985;DHT22;7588;62.368;25.902;2023-05-16T13:01:07;19.20;71.30
14985;DHT22;7588;62.368;25.902;2023-05-16T13:03:34;19.10;72.80
14985;DHT22;7588;62.368;25.902;2023-05-16T13:06:00;19.00;72.60
14985;DHT22;7588;62.368;25.902;2023-05-16T13:08:26;18.90;71.10
14985;DHT22;7588;62.368;25.902;2023-05-16T13:10:53;18.80;71.60
14985;DHT22;7588;62.368;25.902;2023-05-16T13:13:19;18.80;72.90
14985;DHT22;7588;62.368;25.902;2023-05-16T13:15:45;18.70;72.40
14985;DHT22;7588;62.368;25.902;2023-05-16T13:18:10;18.70;73.50
14985;DHT22;7588;62.368;25.902;2023-05-16T13:20:36;18.60;74.20
14985;DHT22;7588;62.368;25.902;2023-05-16T13:23:03;18.60;73.80
14985;DHT22;7588;62.368;25.902;2023-05-16T13:25:30;18.50;75.30
14985;DHT22;7588;62.368;25.902;2023-05-16T13:27:55;18.60;76.50
14985;DHT22;7588;62.368;25.902;2023-05-16T13:30:21;18.50;74.40
14985;DHT22;7588;62.368;25.902;2023-05-16T13:32:47;18.50;75.90
14985;DHT22;7588;62.368;25.902;2023-05-16T13:35:13;18.50;76.00
14985;DHT22;7588;62.368;25.902;2023-05-16T13:37:38;18.50;74.70
14985;DHT22;7588;62.368;25.902;2023-05-16T13:40:06;18.30;75.70
14985;DHT22;7588;62.368;25.902;2023-05-16T13:42:36;18.20;75.80
14985;DHT22;7588;62.368;25.902;2023-05-16T13:45:02;18.10;75.00
14985;DHT22;7588;62.368;25.902;2023-05-16T13:47:28;18.20;78.20
14985;DHT22;7588;62.368;25.902;2023-05-16T13:49:54;18.20;76.30
14985;DHT22;7588;62.368;25.902;2023-05-16T13:52:20;18.10;78.10
14985;DHT22;7588;62.368;25.902;2023-05-16T13:54:45;18.00;77.50
14985;DHT22;7588;62.368;25.902;2023-05-16T13:57:11;17.70;79.40
14985;DHT22;7588;62.368;25.902;2023-05-16T13:59:37;17.60;79.50
14985;DHT22;7588;62.368;25.902;2023-05-16T14:02:03;17.50;82.40
14985;DHT22;7588;62.368;25.902;2023-05-16T14:04:29;17.40;81.20
14985;DHT22;7588;62.368;25.902;2023-05-16T14:06:55;17.30;82.00
14985;DHT22;7588;62.368;25.902;2023-05-16T14:09:21;17.10;82.60
14985;DHT22;7588;62.368;25.902;2023-05-16T14:11:47;16.90;86.00
14985;DHT22;7588;62.368;25.902;2023-05-16T14:14:12;16.80;87.30
14985;DHT22;7588;62.368;25.902;2023-05-16T14:16:38;16.70;88.20
14985;DHT22;7588;62.368;25.902;2023-05-16T14:19:08;16.50;90.50
14985;DHT22;7588;62.368;25.902;2023-05-16T14:21:33;16.30;92.60
14985;DHT22;7588;62.368;25.902;2023-05-16T14:23:59;16.00;93.30
14985;DHT22;7588;62.368;25.902;2023-05-16T14:26:25;15.70;94.80
14985;DHT22;7588;62.368;25.902;2023-05-16T14:28:51;15.50;97.20
14985;DHT22;7588;62.368;25.902;2023-05-16T14:31:16;15.30;98.70
14985;DHT22;7588;62.368;25.902;2023-05-16T14:33:42;15.20;99.90
14985;DHT22;7588;62.368;25.902;2023-05-16T14:36:08;15.00;99.90
14985;DHT22;7588;62.368;25.902;2023-05-16T14:38:34;14.90;99.90
14985;DHT22;7588;62.368;25.902;2023-05-16T14:41:00;14.80;99.90
14985;DHT22;7588;62.368;25.902;2023-05-16T14:43:26;14.70;99.90
14985;DHT22;7588;62.368;25.902;2023-05-16T14:45:51;14.60;99.90
14985;DHT22;7588;62.368;25.902;2023-05-16T14:48:17;14.50;99.90
14985;DHT22;7588;62.368;25.902;2023-05-16T14:50:43;14.50;99.90
14985;DHT22;7588;62.368;25.902;2023-05-16T14:53:08;14.40;99.90
14985;DHT22;7588;62.368;25.902;2023-05-16T14:55:34;14.30;99.90
14985;DHT22;7588;62.368;25.902;2023-05-16T14:58:00;14.30;99.90
14985;DHT22;7588;62.368;25.902;2023-05-16T15:00:26;14.20;99.90
14985;DHT22;7588;62.368;25.902;2023-05-16T15:02:52;14.10;99.90
14985;DHT22;7588;62.368;25.902;2023-05-16T15:05:18;14.00;99.90
14985;DHT22;7588;62.368;25.902;2023-05-16T15:07:43;14.00;99.90
14985;DHT22;7588;62.368;25.902;2023-05-16T15:10:10;14.00;99.90
14985;DHT22;7588;62.368;25.902;2023-05-16T15:12:36;14.00;99.90
14985;DHT22;7588;62.368;25.902;2023-05-16T15:15:02;14.00;99.90
14985;DHT22;7588;62.368;25.902;2023-05-16T15:17:28;14.00;99.90
14985;DHT22;7588;62.368;25.902;2023-05-16T15:19:54;13.80;99.90
14985;DHT22;7588;62.368;25.902;2023-05-16T15:22:20;13.80;99.90
14985;DHT22;7588;62.368;25.902;2023-05-16T15:24:45;13.80;99.90
14985;DHT22;7588;62.368;25.902;2023-05-16T15:27:11;13.80;99.90
14985;DHT22;7588;62.368;25.902;2023-05-16T15:29:37;13.70;99.90
14985;DHT22;7588;62.368;25.902;2023-05-16T15:32:03;13.60;99.90
14985;DHT22;7588;62.368;25.902;2023-05-16T15:34:33;13.50;99.90
14985;DHT22;7588;62.368;25.902;2023-05-16T15:36:59;13.50;99.90
14985;DHT22;7588;62.368;25.902;2023-05-16T15:39:25;13.40;99.90
14985;DHT22;7588;62.368;25.902;2023-05-16T15:41:52;13.20;99.90
14985;DHT22;7588;62.368;25.902;2023-05-16T15:44:18;13.20;99.90
14985;DHT22;7588;62.368;25.902;2023-05-16T15:46:43;13.20;99.90
14985;DHT22;7588;62.368;25.902;2023-05-16T15:49:09;13.20;99.90
14985;DHT22;7588;62.368;25.902;2023-05-16T15:51:37;13.20;99.90
14985;DHT22;7588;62.368;25.902;2023-05-16T15:54:03;13.10;99.90
14985;DHT22;7588;62.368;25.902;2023-05-16T15:56:29;13.10;99.90
14985;DHT22;7588;62.368;25.902;2023-05-16T15:58:55;13.10;99.90
14985;DHT22;7588;62.368;25.902;2023-05-16T16:01:21;13.00;99.90
14985;DHT22;7588;62.368;25.902;2023-05-16T16:03:46;13.00;99.90
14985;DHT22;7588;62.368;25.902;2023-05-16T16:06:12;13.00;99.90
14985;DHT22;7588;62.368;25.902;2023-05-16T16:08:38;13.00;99.90